Etihad Airways Virtual Airport Information Service

Muscat International Airport

ICAO: OOMS Country: Oman
Latitude: 23.5933 Longitude: 58.2844
Latest Arrival : ETDJUMP (OMAA-OOMS) Latest Departure : OMA411 (OOMS-OJAI)


WX CaptureLIVE
Data provided by noaa.gov | Recorded at 18:33:24

METAR : OOMS 081750Z 14010KT 8000 FEW100 BKN200 36/19 Q0995 NOSIG

TAF : OOMS 081700Z 0818/0924 VRB02KT 8000 -RA BKN040 BECMG 0906/0908 07018KT PROB30 TEMPO 0906/0914 4000 -SHRA FEW025CB BKN030 BECMG 0915/0917 VRB02KT


Runway Data for OOMS
Data provided by openaviationdata.com

Runway ID Mag Var Hdg Length Elevation Surface ILS Freq ILS Id ILS Slope

Muscat International Airport, Oman
Use only for reference purposes